Time;durP1;ratioP1;P1;durP2;ratioP2;P2;SDS_P1;SDS_P2;PMS_P1;PMS_P2;Temp;Humidity;BMP_temperature;BMP_pressure;BME280_temperature;BME280_humidity;BME280_pressure;Samples;Min_cycle;Max_cycle;Signal;HPM_P1;HPM_P2
2023/01/05 00:01:01;;;;;;;4.85;4.45;;;;;;;;;;5075288;28;20127;-91
2023/01/05 00:03:27;;;;;;;3.53;3.22;;;;;;;;;;5075307;28;20048;-92
2023/01/05 00:05:58;;;;;;;2.80;2.60;;;;;;;;;;5074921;28;20048;-91
2023/01/05 00:08:24;;;;;;;3.60;2.92;;;;;;;;;;5074984;28;20094;-90
2023/01/05 00:24:32;;;;;;;3.65;2.72;;;;;;;;;;5074553;28;20052;-91
2023/01/05 00:27:00;;;;;;;6.40;5.97;;;;;;;;;;5074586;28;20458;-91
2023/01/05 00:29:26;;;;;;;2.58;2.40;;;;;;;;;;5074522;28;20041;-91
2023/01/05 00:31:53;;;;;;;6.70;3.88;;;;;;;;;;5074189;28;20048;-91
2023/01/05 00:34:19;;;;;;;10.32;3.60;;;;;;;;;;5074561;28;20113;-91
2023/01/05 00:36:46;;;;;;;3.47;3.25;;;;;;;;;;5074298;28;20048;-90
2023/01/05 00:39:12;;;;;;;3.15;2.75;;;;;;;;;;5074496;28;20052;-91
2023/01/05 00:41:39;;;;;;;4.38;3.53;;;;;;;;;;5073897;28;20052;-91
2023/01/05 00:44:07;;;;;;;3.05;2.85;;;;;;;;;;5074346;28;20044;-91
2023/01/05 00:46:33;;;;;;;8.63;3.75;;;;;;;;;;5074296;28;20048;-91
2023/01/05 00:49:00;;;;;;;4.63;4.22;;;;;;;;;;5073998;28;20565;-91
2023/01/05 00:51:26;;;;;;;3.65;3.15;;;;;;;;;;5073801;28;20040;-91
2023/01/05 00:53:53;;;;;;;4.53;4.18;;;;;;;;;;5074263;28;20102;-91
2023/01/05 00:56:19;;;;;;;6.32;6.03;;;;;;;;;;5074202;28;20405;-91
2023/01/05 00:58:46;;;;;;;4.70;4.25;;;;;;;;;;5073924;28;20048;-92
2023/01/05 01:01:14;;;;;;;3.72;3.53;;;;;;;;;;5074050;28;20044;-91
2023/01/05 01:03:40;;;;;;;6.28;4.80;;;;;;;;;;5073410;28;20045;-91
2023/01/05 01:06:07;;;;;;;2.88;2.60;;;;;;;;;;5074080;28;20114;-91
2023/01/05 01:08:33;;;;;;;3.92;3.17;;;;;;;;;;5073713;28;20110;-91
2023/01/05 01:11:03;;;;;;;4.55;4.28;;;;;;;;;;5073575;28;20052;-91
2023/01/05 01:13:29;;;;;;;2.97;2.78;;;;;;;;;;5073766;28;20041;-91
2023/01/05 01:15:56;;;;;;;5.00;4.55;;;;;;;;;;5073578;28;20052;-91
2023/01/05 01:18:24;;;;;;;7.00;5.57;;;;;;;;;;5073587;28;20048;-91
2023/01/05 01:20:50;;;;;;;4.32;2.75;;;;;;;;;;5073506;28;20553;-91
2023/01/05 01:23:17;;;;;;;2.88;2.47;;;;;;;;;;5073843;28;20106;-91
2023/01/05 01:25:43;;;;;;;6.65;6.05;;;;;;;;;;5073421;28;20454;-92
2023/01/05 01:28:10;;;;;;;3.80;3.45;;;;;;;;;;5073734;28;20044;-92
2023/01/05 01:30:37;;;;;;;3.03;2.83;;;;;;;;;;5073742;28;20488;-92
2023/01/05 01:33:04;;;;;;;2.85;2.22;;;;;;;;;;5073323;28;20549;-92
2023/01/05 01:35:32;;;;;;;5.45;2.47;;;;;;;;;;5073687;28;20052;-92
2023/01/05 01:37:58;;;;;;;2.67;2.47;;;;;;;;;;5073501;28;20052;-92
2023/01/05 01:40:25;;;;;;;2.65;2.45;;;;;;;;;;5073103;28;20052;-91
2023/01/05 01:42:51;;;;;;;4.53;4.22;;;;;;;;;;5073288;28;20488;-92
2023/01/05 01:45:19;;;;;;;3.22;3.03;;;;;;;;;;5073524;28;20110;-92
2023/01/05 01:47:47;;;;;;;4.65;4.28;;;;;;;;;;5073569;28;20140;-92
2023/01/05 01:50:15;;;;;;;5.35;4.85;;;;;;;;;;5073452;28;20102;-90
2023/01/05 01:52:44;;;;;;;11.20;6.82;;;;;;;;;;5073401;28;20051;-91
2023/01/05 01:55:11;;;;;;;5.82;5.15;;;;;;;;;;5068030;28;20120;-90
2023/01/05 01:57:38;;;;;;;6.13;4.28;;;;;;;;;;5052815;28;20045;-90
2023/01/05 02:00:06;;;;;;;5.80;5.22;;;;;;;;;;5053212;28;20048;-90
2023/01/05 02:02:33;;;;;;;5.43;4.57;;;;;;;;;;5052791;28;20049;-90
2023/01/05 02:05:02;;;;;;;5.28;4.60;;;;;;;;;;5052734;28;20052;-90
2023/01/05 02:07:30;;;;;;;4.97;4.28;;;;;;;;;;5052848;28;20106;-90
2023/01/05 02:09:57;;;;;;;3.22;2.95;;;;;;;;;;5053167;28;20049;-90
2023/01/05 02:12:30;;;;;;;6.43;6.00;;;;;;;;;;5052917;28;20053;-91
2023/01/05 02:15:03;;;;;;;3.80;3.50;;;;;;;;;;5056455;28;20492;-91
2023/01/05 02:17:34;;;;;;;6.03;5.38;;;;;;;;;;5057021;28;20476;-91
2023/01/05 02:20:23;;;;;;;5.40;4.88;;;;;;;;;;5056849;28;20052;-91
2023/01/05 02:22:59;;;;;;;7.13;6.63;;;;;;;;;;5056688;28;20500;-91
2023/01/05 02:25:37;;;;;;;5.05;3.63;;;;;;;;;;5057113;28;20455;-90
2023/01/05 02:28:14;;;;;;;5.97;5.43;;;;;;;;;;5057025;28;20099;-91
2023/01/05 02:30:58;;;;;;;5.55;5.05;;;;;;;;;;5057009;28;20099;-91
2023/01/05 02:33:27;;;;;;;5.93;5.05;;;;;;;;;;5056845;28;20489;-90
2023/01/05 02:35:57;;;;;;;6.30;5.63;;;;;;;;;;5056726;28;20501;-91
2023/01/05 02:38:27;;;;;;;4.32;4.03;;;;;;;;;;5056919;28;20654;-91
2023/01/05 02:40:57;;;;;;;3.95;3.65;;;;;;;;;;5056455;28;20118;-92
2023/01/05 02:43:23;;;;;;;5.25;4.75;;;;;;;;;;5056854;28;20102;-92
2023/01/05 02:45:51;;;;;;;6.13;5.60;;;;;;;;;;5056771;28;20098;-91
2023/01/05 02:48:18;;;;;;;5.47;5.07;;;;;;;;;;5056697;28;20049;-92
2023/01/05 02:50:47;;;;;;;5.10;4.38;;;;;;;;;;5056408;28;20448;-92
2023/01/05 02:53:17;;;;;;;3.08;2.88;;;;;;;;;;5056572;28;20072;-92
2023/01/05 02:55:45;;;;;;;6.03;5.60;;;;;;;;;;5056596;28;20052;-92
2023/01/05 02:58:14;;;;;;;4.13;3.80;;;;;;;;;;5056238;28;20390;-91
2023/01/05 03:00:43;;;;;;;1.80;1.70;;;;;;;;;;5056167;28;20044;-91
2023/01/05 03:03:13;;;;;;;4.10;3.80;;;;;;;;;;5060473;28;20049;-91
2023/01/05 03:05:42;;;;;;;1.52;1.42;;;;;;;;;;5076367;28;20462;-91
2023/01/05 03:08:09;;;;;;;2.60;2.35;;;;;;;;;;5076393;28;20052;-91
2023/01/05 03:13:41;;;;;;;3.55;3.28;;;;;;;;;;5075968;28;20095;-92
2023/01/05 03:16:09;;;;;;;6.28;2.70;;;;;;;;;;5076230;28;20466;-92
2023/01/05 03:19:34;;;;;;;6.85;3.75;;;;;;;;;;5056230;28;20118;-92
2023/01/05 03:21:25;;;;;;;8.70;5.35;;;;;;;;;;5055918;28;20128;-92
2023/01/05 03:37:44;;;;;;;2.88;2.67;;;;;;;;;;5055523;28;20060;-90
2023/01/05 03:40:13;;;;;;;6.05;5.65;;;;;;;;;;5055131;28;20501;-91
2023/01/05 03:42:41;;;;;;;3.90;3.60;;;;;;;;;;5055300;28;20551;-91
2023/01/05 03:45:08;;;;;;;5.70;4.40;;;;;;;;;;5055349;28;20103;-90
2023/01/05 03:47:35;;;;;;;6.38;5.30;;;;;;;;;;5055460;28;20053;-90
2023/01/05 03:50:03;;;;;;;4.43;4.03;;;;;;;;;;5055127;28;20049;-90
2023/01/05 03:52:29;;;;;;;5.30;5.00;;;;;;;;;;5071357;28;20430;-90
2023/01/05 03:54:56;;;;;;;6.28;5.65;;;;;;;;;;5075469;28;20102;-90
2023/01/05 03:57:22;;;;;;;5.35;4.95;;;;;;;;;;5075455;28;20454;-91
2023/01/05 03:59:49;;;;;;;6.00;5.60;;;;;;;;;;5075295;28;20049;-91
2023/01/05 04:02:15;;;;;;;5.15;3.08;;;;;;;;;;5075391;28;20106;-91
2023/01/05 04:04:42;;;;;;;3.38;3.20;;;;;;;;;;5075017;28;20484;-91
2023/01/05 04:07:10;;;;;;;6.15;5.65;;;;;;;;;;5075250;28;20052;-91
2023/01/05 04:09:36;;;;;;;4.20;3.90;;;;;;;;;;5074741;28;20075;-90
2023/01/05 04:12:03;;;;;;;9.60;8.98;;;;;;;;;;5075054;28;20407;-91
2023/01/05 04:14:29;;;;;;;11.07;6.07;;;;;;;;;;5074500;28;20048;-90
2023/01/05 04:16:56;;;;;;;4.05;3.78;;;;;;;;;;5074889;28;20040;-90
2023/01/05 04:19:22;;;;;;;9.82;9.02;;;;;;;;;;5074876;28;20409;-91
2023/01/05 04:21:49;;;;;;;5.18;4.90;;;;;;;;;;5074425;28;20052;-91
2023/01/05 04:24:17;;;;;;;4.78;4.47;;;;;;;;;;5074694;28;20053;-91
2023/01/05 04:26:43;;;;;;;9.30;5.80;;;;;;;;;;5074688;28;20101;-90
2023/01/05 04:29:10;;;;;;;3.58;3.38;;;;;;;;;;5074561;28;20052;-90
2023/01/05 04:31:37;;;;;;;4.70;4.30;;;;;;;;;;5074211;28;20045;-90
2023/01/05 04:34:03;;;;;;;6.20;4.85;;;;;;;;;;5074412;28;20040;-91
2023/01/05 04:36:30;;;;;;;4.47;4.20;;;;;;;;;;5074269;28;20110;-90
2023/01/05 04:38:56;;;;;;;11.25;6.45;;;;;;;;;;5074261;28;20055;-90
2023/01/05 04:41:24;;;;;;;6.80;4.80;;;;;;;;;;5073857;28;20052;-90
2023/01/05 04:43:50;;;;;;;6.35;5.57;;;;;;;;;;5074012;28;20048;-89
2023/01/05 04:46:17;;;;;;;5.97;4.88;;;;;;;;;;5073895;28;20052;-90
2023/01/05 04:48:43;;;;;;;3.30;3.00;;;;;;;;;;5054401;28;20056;-91
2023/01/05 04:51:10;;;;;;;5.82;4.63;;;;;;;;;;5054062;28;20053;-91
2023/01/05 04:53:36;;;;;;;10.65;5.78;;;;;;;;;;5053902;28;20095;-91
2023/01/05 04:56:03;;;;;;;5.80;4.90;;;;;;;;;;5054269;28;20110;-91
2023/01/05 04:58:31;;;;;;;5.47;5.07;;;;;;;;;;5053846;28;20103;-91
2023/01/05 05:00:57;;;;;;;3.25;3.05;;;;;;;;;;5053924;28;20045;-91
2023/01/05 05:03:24;;;;;;;3.90;3.70;;;;;;;;;;5054177;28;20098;-91
2023/01/05 05:05:50;;;;;;;5.13;4.78;;;;;;;;;;5053780;28;20049;-91
2023/01/05 05:08:17;;;;;;;9.15;8.57;;;;;;;;;;5053923;28;20440;-90
2023/01/05 05:10:43;;;;;;;4.35;4.00;;;;;;;;;;5072665;28;20102;-91
2023/01/05 05:13:10;;;;;;;5.43;5.03;;;;;;;;;;5073891;28;20447;-92
2023/01/05 05:15:38;;;;;;;6.25;4.60;;;;;;;;;;5073986;28;20056;-91
2023/01/05 05:18:04;;;;;;;3.25;3.00;;;;;;;;;;5073862;28;20044;-90
2023/01/05 05:20:31;;;;;;;7.03;6.43;;;;;;;;;;5073347;28;20420;-90
2023/01/05 05:22:57;;;;;;;6.60;5.97;;;;;;;;;;5073776;28;20101;-91
2023/01/05 05:25:24;;;;;;;7.22;4.65;;;;;;;;;;5073360;28;20102;-91
2023/01/05 05:27:50;;;;;;;5.03;4.55;;;;;;;;;;5073653;28;20048;-91
2023/01/05 05:30:17;;;;;;;5.43;4.97;;;;;;;;;;5073267;28;20045;-90
2023/01/05 05:32:45;;;;;;;5.03;4.63;;;;;;;;;;5073016;28;20053;-90
2023/01/05 05:35:11;;;;;;;5.38;3.67;;;;;;;;;;5073395;28;20452;-90
2023/01/05 05:37:38;;;;;;;5.70;4.43;;;;;;;;;;5073092;28;20480;-90
2023/01/05 05:40:05;;;;;;;3.55;3.30;;;;;;;;;;5072982;28;20056;-90
2023/01/05 05:42:31;;;;;;;5.53;5.28;;;;;;;;;;5073148;28;20459;-91
2023/01/05 05:44:58;;;;;;;4.25;4.00;;;;;;;;;;5073512;28;20052;-91
2023/01/05 05:47:24;;;;;;;4.57;3.60;;;;;;;;;;5073567;28;20070;-91
2023/01/05 05:49:52;;;;;;;4.47;4.18;;;;;;;;;;5073080;28;20094;-91
2023/01/05 05:52:19;;;;;;;7.75;4.60;;;;;;;;;;5073163;28;20049;-92
2023/01/05 05:54:45;;;;;;;5.63;4.40;;;;;;;;;;5073097;28;20049;-91
2023/01/05 05:57:12;;;;;;;4.88;4.47;;;;;;;;;;5073215;28;20113;-91
2023/01/05 05:59:38;;;;;;;7.60;5.30;;;;;;;;;;5073387;28;20105;-91
2023/01/05 06:02:05;;;;;;;5.43;5.03;;;;;;;;;;5073257;28;20110;-92
2023/01/05 06:04:31;;;;;;;6.07;5.65;;;;;;;;;;5073295;28;20067;-91
2023/01/05 06:06:59;;;;;;;5.88;5.25;;;;;;;;;;5073250;28;20121;-91
2023/01/05 06:09:26;;;;;;;6.25;5.35;;;;;;;;;;5073360;28;20118;-91
2023/01/05 06:11:52;;;;;;;6.13;5.72;;;;;;;;;;5073392;28;20050;-91
2023/01/05 06:14:19;;;;;;;7.47;5.75;;;;;;;;;;5073337;28;20041;-91
2023/01/05 06:16:45;;;;;;;12.32;11.15;;;;;;;;;;5073211;28;20053;-91
2023/01/05 06:19:12;;;;;;;7.90;7.28;;;;;;;;;;5072963;28;20049;-92
2023/01/05 06:21:38;;;;;;;10.90;6.22;;;;;;;;;;5058055;28;20095;-92
2023/01/05 06:24:07;;;;;;;7.70;6.95;;;;;;;;;;5057804;28;20045;-92
2023/01/05 06:26:33;;;;;;;11.32;8.95;;;;;;;;;;5073116;28;20107;-92
2023/01/05 06:29:00;;;;;;;12.38;6.65;;;;;;;;;;5073053;28;20048;-91
2023/01/05 06:31:26;;;;;;;7.22;6.53;;;;;;;;;;5072622;28;20098;-92
2023/01/05 06:33:53;;;;;;;8.07;7.25;;;;;;;;;;5055254;28;20043;-92
2023/01/05 06:36:19;;;;;;;7.60;6.80;;;;;;;;;;5052542;28;20053;-92
2023/01/05 06:38:46;;;;;;;7.90;7.13;;;;;;;;;;5052663;28;20045;-92
2023/01/05 06:41:13;;;;;;;12.80;7.68;;;;;;;;;;5052418;28;20053;-92
2023/01/05 06:43:40;;;;;;;7.68;7.00;;;;;;;;;;5052775;28;20044;-92
2023/01/05 06:46:06;;;;;;;11.43;10.35;;;;;;;;;;5052399;28;20699;-92
2023/01/05 06:48:33;;;;;;;9.55;8.65;;;;;;;;;;5052548;28;20049;-91
2023/01/05 06:50:59;;;;;;;5.80;5.40;;;;;;;;;;5052068;28;20049;-89
2023/01/05 06:53:26;;;;;;;10.15;9.25;;;;;;;;;;5058072;28;20124;-85
2023/01/05 06:55:52;;;;;;;11.45;9.20;;;;;;;;;;5073571;28;20048;-87
2023/01/05 06:58:20;;;;;;;10.23;8.10;;;;;;;;;;5072277;28;20044;-88
2023/01/05 07:00:47;;;;;;;5.90;5.43;;;;;;;;;;5063950;28;20056;-88
2023/01/05 07:03:13;;;;;;;6.45;5.95;;;;;;;;;;5055273;28;20068;-90
2023/01/05 07:05:40;;;;;;;6.18;5.55;;;;;;;;;;5075039;28;20105;-88
2023/01/05 07:08:07;;;;;;;7.13;6.63;;;;;;;;;;5075159;28;20048;-87
2023/01/05 07:10:33;;;;;;;7.97;7.32;;;;;;;;;;5075215;28;20045;-88
2023/01/05 07:13:00;;;;;;;5.20;4.80;;;;;;;;;;5074399;28;20098;-88
2023/01/05 07:15:28;;;;;;;8.75;7.93;;;;;;;;;;5075138;28;20052;-88
2023/01/05 07:17:54;;;;;;;13.38;12.23;;;;;;;;;;5062170;28;20386;-88
2023/01/05 07:20:21;;;;;;;9.40;8.68;;;;;;;;;;5055192;28;20052;-87
2023/01/05 07:22:47;;;;;;;8.32;7.70;;;;;;;;;;5055129;28;20103;-87
2023/01/05 07:25:14;;;;;;;9.45;8.30;;;;;;;;;;5072920;28;20094;-87
2023/01/05 07:27:40;;;;;;;7.25;6.65;;;;;;;;;;5075206;28;20045;-87
2023/01/05 07:30:07;;;;;;;6.60;4.72;;;;;;;;;;5056138;28;20392;-87
2023/01/05 07:32:35;;;;;;;7.82;7.28;;;;;;;;;;5057573;28;20484;-89
2023/01/05 07:35:02;;;;;;;6.30;5.78;;;;;;;;;;5074686;28;20485;-88
2023/01/05 07:37:28;;;;;;;7.53;6.00;;;;;;;;;;5074999;28;20045;-87
2023/01/05 07:39:55;;;;;;;9.02;8.32;;;;;;;;;;5077286;28;20098;-89
2023/01/05 07:42:21;;;;;;;6.88;5.05;;;;;;;;;;5074801;28;20054;-88
2023/01/05 07:44:48;;;;;;;6.60;6.10;;;;;;;;;;5074657;28;20049;-88
2023/01/05 07:47:14;;;;;;;7.07;6.40;;;;;;;;;;5074596;28;20052;-89
2023/01/05 07:49:42;;;;;;;22.45;11.70;;;;;;;;;;5074533;28;20053;-88
2023/01/05 07:52:09;;;;;;;8.38;7.57;;;;;;;;;;5074056;28;20052;-88
2023/01/05 07:54:35;;;;;;;8.07;7.43;;;;;;;;;;5074602;28;20106;-90
2023/01/05 07:57:02;;;;;;;10.73;8.68;;;;;;;;;;5075168;28;20045;-89
2023/01/05 07:59:28;;;;;;;11.07;8.38;;;;;;;;;;5074487;28;20098;-89
2023/01/05 08:01:55;;;;;;;13.07;6.78;;;;;;;;;;5074769;28;20426;-89
2023/01/05 08:04:21;;;;;;;7.75;7.15;;;;;;;;;;5074953;28;20098;-89
2023/01/05 08:06:51;;;;;;;9.82;7.15;;;;;;;;;;5074977;28;20052;-88
2023/01/05 08:12:01;;;;;;;12.32;8.25;;;;;;;;;;5074366;28;20130;-89
2023/01/05 08:14:27;;;;;;;7.53;6.72;;;;;;;;;;5074730;28;20049;-89
2023/01/05 08:16:54;;;;;;;9.07;8.15;;;;;;;;;;5059411;28;20102;-89
2023/01/05 08:19:23;;;;;;;8.45;7.47;;;;;;;;;;5054693;28;20096;-89
2023/01/05 08:21:51;;;;;;;9.82;9.05;;;;;;;;;;5054307;28;20059;-89
2023/01/05 08:24:18;;;;;;;12.00;11.10;;;;;;;;;;5054814;28;20455;-90
2023/01/05 08:26:44;;;;;;;10.98;9.07;;;;;;;;;;5054557;28;20060;-90
2023/01/05 08:29:11;;;;;;;10.45;9.40;;;;;;;;;;5054392;28;20119;-90
2023/01/05 08:31:38;;;;;;;15.23;7.45;;;;;;;;;;5060114;28;20102;-89
2023/01/05 08:34:05;;;;;;;16.80;8.77;;;;;;;;;;5060955;28;20492;-90
2023/01/05 08:36:32;;;;;;;7.38;6.68;;;;;;;;;;5068447;28;20045;-89
2023/01/05 08:39:01;;;;;;;7.40;6.53;;;;;;;;;;5062815;28;20056;-90
2023/01/05 08:41:28;;;;;;;8.75;7.18;;;;;;;;;;5065612;28;20111;-89
2023/01/05 08:43:55;;;;;;;8.38;6.57;;;;;;;;;;5063030;28;20110;-90
2023/01/05 08:46:23;;;;;;;7.65;6.78;;;;;;;;;;5063814;28;20052;-89
2023/01/05 08:48:49;;;;;;;10.18;9.32;;;;;;;;;;5057618;28;20497;-90
2023/01/05 08:51:16;;;;;;;9.18;8.48;;;;;;;;;;5073814;28;20052;-89
2023/01/05 08:53:42;;;;;;;6.35;5.82;;;;;;;;;;5069118;28;20048;-89
2023/01/05 08:56:10;;;;;;;8.43;7.60;;;;;;;;;;5059311;28;20040;-89
2023/01/05 08:58:37;;;;;;;8.70;7.20;;;;;;;;;;5073015;28;20048;-89
2023/01/05 09:01:05;;;;;;;6.43;6.03;;;;;;;;;;5071475;28;20094;-90
2023/01/05 09:03:32;;;;;;;8.70;8.10;;;;;;;;;;5058827;28;20094;-90
2023/01/05 09:06:01;;;;;;;7.70;7.10;;;;;;;;;;5062793;28;20581;-89
2023/01/05 09:08:28;;;;;;;6.43;5.90;;;;;;;;;;5073463;28;20055;-89
2023/01/05 09:10:54;;;;;;;7.70;6.93;;;;;;;;;;5073259;28;20048;-89
2023/01/05 09:13:22;;;;;;;7.38;6.40;;;;;;;;;;5070440;28;20056;-89
2023/01/05 09:15:48;;;;;;;6.78;6.13;;;;;;;;;;5061720;28;20106;-89
2023/01/05 09:18:15;;;;;;;10.38;7.13;;;;;;;;;;5073262;28;20113;-89
2023/01/05 09:20:41;;;;;;;6.25;5.78;;;;;;;;;;5073277;28;20053;-89
2023/01/05 09:23:08;;;;;;;6.72;5.90;;;;;;;;;;5072274;28;20109;-89
2023/01/05 09:25:34;;;;;;;7.22;6.25;;;;;;;;;;5063212;28;20450;-89
2023/01/05 09:28:01;;;;;;;7.93;7.20;;;;;;;;;;5069761;28;20084;-89
2023/01/05 09:30:29;;;;;;;7.85;7.22;;;;;;;;;;5073088;28;20113;-89
2023/01/05 09:32:55;;;;;;;7.68;6.97;;;;;;;;;;5073025;28;20048;-90
2023/01/05 09:35:22;;;;;;;8.13;6.55;;;;;;;;;;5072730;28;20098;-89
2023/01/05 09:37:48;;;;;;;6.07;5.50;;;;;;;;;;5072791;28;20049;-89
2023/01/05 09:40:15;;;;;;;7.25;6.82;;;;;;;;;;5072424;28;20064;-89
2023/01/05 09:42:43;;;;;;;7.60;6.68;;;;;;;;;;5072636;28;20529;-89
2023/01/05 09:45:12;;;;;;;6.70;6.22;;;;;;;;;;5072941;28;20094;-89
2023/01/05 09:47:41;;;;;;;5.03;4.60;;;;;;;;;;5072797;28;20049;-89
2023/01/05 09:50:12;;;;;;;7.80;6.40;;;;;;;;;;5072584;28;20048;-90
2023/01/05 09:52:38;;;;;;;;;;;;;;;;;;5069361;28;20492;-90
2023/01/05 09:55:10;;;;;;;7.03;6.45;;;;;;;;;;5057505;28;19925;-90
2023/01/05 09:57:37;;;;;;;4.32;3.92;;;;;;;;;;5067875;28;20048;-90
2023/01/05 10:00:06;;;;;;;4.88;4.57;;;;;;;;;;5073063;28;20094;-90
2023/01/05 10:02:34;;;;;;;6.57;5.90;;;;;;;;;;5072547;28;20503;-90
2023/01/05 10:05:04;;;;;;;7.68;7.00;;;;;;;;;;5072541;28;20098;-90
2023/01/05 10:07:34;;;;;;;5.15;4.65;;;;;;;;;;5072246;28;20076;-90
2023/01/05 10:10:05;;;;;;;6.38;5.80;;;;;;;;;;5072441;28;20052;-89
2023/01/05 10:15:17;;;;;;;5.60;5.30;;;;;;;;;;5072500;28;20014;-89
2023/01/05 10:17:43;;;;;;;3.10;2.90;;;;;;;;;;5072947;28;20107;-88
2023/01/05 10:20:27;;;;;;;3.35;3.15;;;;;;;;;;5073059;28;20450;-89
2023/01/05 10:23:00;;;;;;;3.78;3.40;;;;;;;;;;5073021;28;20045;-90
2023/01/05 10:25:31;;;;;;;5.65;4.07;;;;;;;;;;5073315;28;20094;-89
2023/01/05 10:28:02;;;;;;;4.18;3.95;;;;;;;;;;5073247;28;20106;-88
2023/01/05 10:30:39;;;;;;;5.97;5.47;;;;;;;;;;5072908;28;20098;-90
2023/01/05 10:33:12;;;;;;;4.93;4.40;;;;;;;;;;5072613;28;20056;-89
2023/01/05 10:35:52;;;;;;;7.50;6.80;;;;;;;;;;5075663;28;20045;-90
2023/01/05 10:38:26;;;;;;;4.72;4.45;;;;;;;;;;5076651;28;20804;-89
2023/01/05 10:40:57;;;;;;;7.60;7.00;;;;;;;;;;5076277;28;20049;-89
2023/01/05 10:43:23;;;;;;;;;;;;;;;;;;5071220;28;20493;-90
2023/01/05 10:45:49;;;;;;;3.55;3.35;;;;;;;;;;5056858;28;20370;-92
2023/01/05 10:48:19;;;;;;;9.15;6.20;;;;;;;;;;5076273;28;20047;-91
2023/01/05 10:50:46;;;;;;;6.65;5.00;;;;;;;;;;5076100;28;20094;-90
2023/01/05 10:53:15;;;;;;;6.35;5.85;;;;;;;;;;5075956;28;20488;-90
2023/01/05 10:55:51;;;;;;;3.05;2.85;;;;;;;;;;5076214;28;20094;-90
2023/01/05 10:58:21;;;;;;;6.30;5.70;;;;;;;;;;5075837;28;20045;-91
2023/01/05 11:00:48;;;;;;;10.90;10.30;;;;;;;;;;5075838;28;20451;-91
2023/01/05 11:03:16;;;;;;;8.52;5.72;;;;;;;;;;5076141;28;20109;-90
2023/01/05 11:05:44;;;;;;;9.25;5.43;;;;;;;;;;5075947;28;20553;-90
2023/01/05 11:08:16;;;;;;;7.63;7.03;;;;;;;;;;5075714;28;20049;-90
2023/01/05 11:10:50;;;;;;;5.03;4.63;;;;;;;;;;5076245;28;20056;-90
2023/01/05 11:13:18;;;;;;;6.15;5.65;;;;;;;;;;5076244;28;20122;-90
2023/01/05 11:15:48;;;;;;;5.25;4.85;;;;;;;;;;5076154;28;20549;-90
2023/01/05 11:18:22;;;;;;;6.60;5.15;;;;;;;;;;5076199;28;20114;-90
2023/01/05 11:21:04;;;;;;;5.18;4.85;;;;;;;;;;5076067;28;20048;-90
2023/01/05 11:23:35;;;;;;;5.50;5.00;;;;;;;;;;5075913;28;20049;-90
2023/01/05 11:26:11;;;;;;;6.22;5.82;;;;;;;;;;5075857;28;20516;-88
2023/01/05 11:28:38;;;;;;;4.88;4.53;;;;;;;;;;5076188;28;20072;-90
2023/01/05 11:31:05;;;;;;;4.60;3.63;;;;;;;;;;5075911;28;20041;-91
2023/01/05 11:33:34;;;;;;;4.57;4.28;;;;;;;;;;5075519;28;20045;-91
2023/01/05 11:36:02;;;;;;;4.72;4.32;;;;;;;;;;5075463;28;20098;-91
2023/01/05 11:38:30;;;;;;;4.00;3.78;;;;;;;;;;5075775;28;20052;-91
2023/01/05 11:40:59;;;;;;;5.05;4.68;;;;;;;;;;5068986;28;20109;-91
2023/01/05 11:43:27;;;;;;;5.72;3.72;;;;;;;;;;5075408;28;20569;-91
2023/01/05 11:45:54;;;;;;;5.72;5.30;;;;;;;;;;5074603;28;20553;-91
2023/01/05 11:48:23;;;;;;;6.75;6.20;;;;;;;;;;5075323;28;20094;-91
2023/01/05 11:50:50;;;;;;;4.47;3.85;;;;;;;;;;5075322;28;20115;-90
2023/01/05 11:53:35;;;;;;;6.00;5.68;;;;;;;;;;5075072;28;20048;-90
2023/01/05 11:56:04;;;;;;;5.28;4.80;;;;;;;;;;5075497;28;20044;-91
2023/01/05 11:58:32;;;;;;;5.07;3.50;;;;;;;;;;5075137;28;20041;-91
2023/01/05 12:01:21;;;;;;;6.20;5.78;;;;;;;;;;5075244;28;20496;-91
2023/01/05 12:04:00;;;;;;;7.25;6.65;;;;;;;;;;5075634;28;20048;-90
2023/01/05 12:06:32;;;;;;;5.30;4.93;;;;;;;;;;5075406;28;20079;-91
2023/01/05 12:09:03;;;;;;;5.32;5.03;;;;;;;;;;5076819;28;20110;-90
2023/01/05 12:11:35;;;;;;;6.40;6.03;;;;;;;;;;5076540;28;20106;-91
2023/01/05 12:14:07;;;;;;;4.13;3.83;;;;;;;;;;5077248;28;20071;-91
2023/01/05 12:16:40;;;;;;;5.72;5.40;;;;;;;;;;5076881;28;20044;-90
2023/01/05 12:19:21;;;;;;;7.43;6.97;;;;;;;;;;5075078;28;20102;-90
2023/01/05 12:21:52;;;;;;;8.25;7.60;;;;;;;;;;5074428;28;20048;-90
2023/01/05 12:24:18;;;;;;;;;;;;;;;;;;5080095;28;20455;-91
2023/01/05 12:26:50;;;;;;;6.10;5.75;;;;;;;;;;5080630;28;19974;-90
2023/01/05 12:29:37;;;;;;;7.18;6.57;;;;;;;;;;5076827;28;20048;-91
2023/01/05 12:32:13;;;;;;;4.68;4.38;;;;;;;;;;5075093;28;20052;-90
2023/01/05 12:34:55;;;;;;;6.50;6.00;;;;;;;;;;5074247;28;20053;-90
2023/01/05 12:37:26;;;;;;;6.63;5.95;;;;;;;;;;5074390;28;20056;-90
2023/01/05 12:40:00;;;;;;;5.22;4.93;;;;;;;;;;5073826;28;20484;-91
2023/01/05 12:42:46;;;;;;;5.22;4.47;;;;;;;;;;5073931;28;20057;-90
2023/01/05 12:45:39;;;;;;;6.15;5.57;;;;;;;;;;5074267;28;20131;-90
2023/01/05 12:48:08;;;;;;;6.72;5.97;;;;;;;;;;5012184;28;20049;-90
2023/01/05 12:50:37;;;;;;;5.95;5.55;;;;;;;;;;5012055;28;20056;-90
2023/01/05 12:53:12;;;;;;;5.43;5.03;;;;;;;;;;5012006;28;20050;-90
2023/01/05 12:55:40;;;;;;;6.13;5.53;;;;;;;;;;5011903;28;20038;-90
2023/01/05 12:58:10;;;;;;;4.80;4.40;;;;;;;;;;5011266;28;20061;-90
2023/01/05 13:00:40;;;;;;;4.75;4.32;;;;;;;;;;5012322;28;20727;-90
2023/01/05 13:03:11;;;;;;;5.68;5.35;;;;;;;;;;5012341;28;20049;-90
2023/01/05 13:05:40;;;;;;;7.20;6.70;;;;;;;;;;5012312;28;20053;-90
2023/01/05 13:08:14;;;;;;;7.78;7.28;;;;;;;;;;5012229;28;20546;-90
2023/01/05 13:10:45;;;;;;;7.80;7.32;;;;;;;;;;5012084;28;20053;-90
2023/01/05 13:13:14;;;;;;;9.02;8.52;;;;;;;;;;5012157;28;20042;-90
2023/01/05 13:15:42;;;;;;;6.47;5.82;;;;;;;;;;5012236;28;20046;-90
2023/01/05 13:18:12;;;;;;;5.70;5.30;;;;;;;;;;5012023;28;20922;-90
2023/01/05 13:26:44;;;;;;;5.45;4.95;;;;;;;;;;5071011;28;20486;-90
2023/01/05 13:29:16;;;;;;;5.93;5.43;;;;;;;;;;5073573;28;20106;-90
2023/01/05 13:31:53;;;;;;;4.95;4.63;;;;;;;;;;5073236;28;20048;-90
2023/01/05 13:34:27;;;;;;;6.22;5.72;;;;;;;;;;5073314;28;20099;-90
2023/01/05 13:37:08;;;;;;;6.97;6.38;;;;;;;;;;5073235;28;20048;-90
2023/01/05 13:39:42;;;;;;;4.97;4.65;;;;;;;;;;5070278;28;20121;-92
2023/01/05 13:42:20;;;;;;;10.20;9.50;;;;;;;;;;5073664;28;20458;-91
2023/01/05 13:45:05;;;;;;;6.13;5.70;;;;;;;;;;5073539;28;20063;-91
2023/01/05 13:47:41;;;;;;;3.78;3.47;;;;;;;;;;5032297;28;20053;-90
2023/01/05 13:50:22;;;;;;;7.80;5.80;;;;;;;;;;5053392;28;20139;-90
2023/01/05 13:52:56;;;;;;;5.68;5.18;;;;;;;;;;5041009;28;20045;-90
2023/01/05 13:55:23;;;;;;;6.28;5.78;;;;;;;;;;5053124;28;20083;-90
2023/01/05 13:57:50;;;;;;;6.05;5.60;;;;;;;;;;5053057;28;20049;-90
2023/01/05 14:00:29;;;;;;;5.57;5.07;;;;;;;;;;5053356;28;20099;-90
2023/01/05 14:03:00;;;;;;;6.47;4.90;;;;;;;;;;5052940;28;20500;-90
2023/01/05 14:05:26;;;;;;;;;;;;;;;;;;5053384;28;20048;-90
2023/01/05 14:07:54;;;;;;;4.35;4.07;;;;;;;;;;5053266;28;19990;-90
2023/01/05 14:10:22;;;;;;;6.10;3.95;;;;;;;;;;5062330;28;20381;-90
2023/01/05 14:12:49;;;;;;;5.20;4.45;;;;;;;;;;5077369;28;20045;-90
2023/01/05 14:15:36;;;;;;;6.70;6.07;;;;;;;;;;5077190;28;20130;-91
2023/01/05 14:18:04;;;;;;;4.90;4.53;;;;;;;;;;5077028;28;20462;-91
2023/01/05 14:20:35;;;;;;;7.10;6.40;;;;;;;;;;5077398;28;20044;-90
2023/01/05 14:23:04;;;;;;;12.45;11.02;;;;;;;;;;5057652;28;20447;-91
2023/01/05 14:25:51;;;;;;;10.63;6.65;;;;;;;;;;5073542;28;20095;-90
2023/01/05 14:28:19;;;;;;;9.82;8.88;;;;;;;;;;5057076;28;20130;-90
2023/01/05 14:30:46;;;;;;;8.70;8.00;;;;;;;;;;5056744;28;20091;-90
2023/01/05 14:33:16;;;;;;;8.02;7.32;;;;;;;;;;5056708;28;20054;-90
2023/01/05 14:35:43;;;;;;;4.75;4.22;;;;;;;;;;5056602;28;20049;-90
2023/01/05 14:38:16;;;;;;;7.00;6.30;;;;;;;;;;5056574;28;20535;-90
2023/01/05 14:40:44;;;;;;;7.47;6.82;;;;;;;;;;5056361;28;20202;-90
2023/01/05 14:43:21;;;;;;;6.00;5.25;;;;;;;;;;5056569;28;20048;-89
2023/01/05 14:45:56;;;;;;;4.80;4.43;;;;;;;;;;5055946;28;20049;-89
2023/01/05 14:48:28;;;;;;;5.07;4.55;;;;;;;;;;5055918;28;20405;-88
2023/01/05 14:51:07;;;;;;;6.07;5.68;;;;;;;;;;5056253;28;20049;-91
2023/01/05 14:53:40;;;;;;;4.95;4.55;;;;;;;;;;5056684;28;20099;-90
2023/01/05 14:56:15;;;;;;;4.65;3.80;;;;;;;;;;5056342;28;20045;-90
2023/01/05 14:58:54;;;;;;;5.65;5.25;;;;;;;;;;5056507;28;20063;-90
2023/01/05 15:01:23;;;;;;;6.03;3.78;;;;;;;;;;5055963;28;20045;-87
2023/01/05 15:03:53;;;;;;;4.25;3.95;;;;;;;;;;5055226;28;20053;-88
2023/01/05 15:06:23;;;;;;;6.57;5.80;;;;;;;;;;5058758;28;20089;-87
2023/01/05 15:09:07;;;;;;;4.53;4.22;;;;;;;;;;5075570;28;20052;-87
2023/01/05 15:11:43;;;;;;;7.03;6.65;;;;;;;;;;5070065;28;20107;-87
2023/01/05 15:14:33;;;;;;;5.15;4.88;;;;;;;;;;5069920;28;20078;-88
2023/01/05 15:17:15;;;;;;;6.55;5.97;;;;;;;;;;5067011;28;20041;-88
2023/01/05 15:19:49;;;;;;;5.07;4.78;;;;;;;;;;5046238;28;20106;-87
2023/01/05 15:22:22;;;;;;;6.60;4.78;;;;;;;;;;5054106;28;20107;-88
2023/01/05 15:25:06;;;;;;;6.40;5.80;;;;;;;;;;5055236;28;20115;-88
2023/01/05 15:27:39;;;;;;;3.45;3.20;;;;;;;;;;5054904;28;20135;-87
2023/01/05 15:30:26;;;;;;;3.35;3.10;;;;;;;;;;5055179;28;20057;-88
2023/01/05 15:33:00;;;;;;;5.07;4.70;;;;;;;;;;5037388;28;20056;-88
2023/01/05 15:35:32;;;;;;;5.38;3.95;;;;;;;;;;5054808;28;20086;-87
2023/01/05 15:38:12;;;;;;;4.60;4.28;;;;;;;;;;5054337;28;20049;-87